createdAt,value
2022-12-05T00:00:50.327Z,26.93
2022-12-05T00:03:17.060Z,29.17
2022-12-05T00:05:43.820Z,29.70
2022-12-05T00:08:10.614Z,28.33
2022-12-05T00:10:39.116Z,28.83
2022-12-05T00:13:06.101Z,28.23
2022-12-05T00:15:37.390Z,29.80
2022-12-05T00:18:04.624Z,26.47
2022-12-05T00:20:31.381Z,30.00
2022-12-05T00:22:58.049Z,32.33
2022-12-05T00:25:24.678Z,30.50
2022-12-05T00:27:51.365Z,30.50
2022-12-05T00:30:18.214Z,31.93
2022-12-05T00:32:44.908Z,31.13
2022-12-05T00:35:11.646Z,32.90
2022-12-05T00:37:38.585Z,33.37
2022-12-05T00:40:05.961Z,32.38
2022-12-05T00:42:32.663Z,33.63
2022-12-05T00:44:59.396Z,36.00
2022-12-05T00:47:26.048Z,33.70
2022-12-05T00:49:52.679Z,34.17
2022-12-05T00:52:19.436Z,31.60
2022-12-05T00:54:46.075Z,33.13
2022-12-05T00:57:12.660Z,32.63
2022-12-05T00:59:40.317Z,34.77
2022-12-05T01:02:06.935Z,34.20
2022-12-05T01:04:33.636Z,35.03
2022-12-05T01:07:00.476Z,36.93
2022-12-05T01:09:27.613Z,33.40
2022-12-05T01:11:54.518Z,35.50
2022-12-05T01:14:23.616Z,33.77
2022-12-05T01:16:53.221Z,36.93
2022-12-05T01:19:23.139Z,36.27
2022-12-05T01:21:50.765Z,34.80
2022-12-05T01:24:18.966Z,37.00
2022-12-05T01:26:46.751Z,33.83
2022-12-05T01:29:15.937Z,34.43
2022-12-05T01:31:42.704Z,35.43
2022-12-05T01:34:13.134Z,31.90
2022-12-05T01:36:40.245Z,31.87
2022-12-05T01:39:08.334Z,34.23
2022-12-05T01:41:38.130Z,33.00
2022-12-05T01:44:27.782Z,33.20
2022-12-05T01:46:55.553Z,34.63
2022-12-05T01:49:36.094Z,32.93
2022-12-05T01:52:08.838Z,30.47
2022-12-05T01:54:37.123Z,31.20
2022-12-05T01:57:08.155Z,33.77
2022-12-05T01:59:39.005Z,30.60
2022-12-05T02:02:07.229Z,30.40
2022-12-05T02:04:38.479Z,32.23
2022-12-05T02:07:05.097Z,31.40
2022-12-05T02:09:31.813Z,32.00
2022-12-05T02:12:01.573Z,36.10
2022-12-05T02:14:57.786Z,33.22
2022-12-05T02:17:40.438Z,30.60
2022-12-05T02:20:30.397Z,31.23
2022-12-05T02:22:56.904Z,31.80
2022-12-05T02:25:40.434Z,29.33
2022-12-05T02:28:25.239Z,30.03
2022-12-05T02:30:59.713Z,30.20
2022-12-05T02:33:35.001Z,27.83
2022-12-05T02:36:26.658Z,27.83
2022-12-05T02:39:06.741Z,28.83
2022-12-05T02:41:33.297Z,26.63
2022-12-05T02:44:05.550Z,28.63
2022-12-05T02:46:35.838Z,26.57
2022-12-05T02:49:08.258Z,28.00
2022-12-05T02:51:39.321Z,27.70
2022-12-05T02:54:09.969Z,27.97
2022-12-05T02:56:37.521Z,27.07
2022-12-05T02:59:04.446Z,27.30
2022-12-05T03:01:32.720Z,26.93
2022-12-05T03:04:02.494Z,26.70
2022-12-05T03:06:40.234Z,26.57
2022-12-05T03:09:26.097Z,31.07
2022-12-05T03:12:17.439Z,26.53
2022-12-05T03:14:57.988Z,29.10
2022-12-05T03:17:29.970Z,27.10
2022-12-05T03:20:23.166Z,29.42
2022-12-05T03:23:01.368Z,27.52
2022-12-05T03:25:40.469Z,29.03
2022-12-05T03:28:34.607Z,28.00
2022-12-05T03:31:08.933Z,29.25
2022-12-05T03:33:41.829Z,31.50
2022-12-05T03:36:13.550Z,32.47
2022-12-05T03:38:56.814Z,27.97
2022-12-05T03:41:40.482Z,29.03
2022-12-05T03:44:37.905Z,27.20
2022-12-05T03:47:17.665Z,28.83
2022-12-05T03:50:00.843Z,29.80
2022-12-05T03:52:57.152Z,28.30
2022-12-05T03:55:29.854Z,31.40
2022-12-05T03:58:05.922Z,33.27
2022-12-05T04:00:37.775Z,36.03
2022-12-05T04:03:10.148Z,30.02
2022-12-05T04:05:43.424Z,31.60
2022-12-05T04:08:31.673Z,32.77
2022-12-05T04:11:03.259Z,31.13
2022-12-05T04:13:46.966Z,30.03
2022-12-05T04:16:52.344Z,32.87
2022-12-05T04:19:51.076Z,31.50
2022-12-05T04:22:19.392Z,30.80
2022-12-05T04:25:05.626Z,32.30
2022-12-05T04:27:46.114Z,35.00
2022-12-05T04:30:25.504Z,31.30
2022-12-05T04:33:07.207Z,35.40
2022-12-05T04:35:43.178Z,29.23
2022-12-05T04:38:20.342Z,31.07
2022-12-05T04:40:54.534Z,30.30
2022-12-05T04:43:22.834Z,32.60
2022-12-05T04:45:52.299Z,30.10
2022-12-05T04:48:21.313Z,28.83
2022-12-05T04:50:51.407Z,28.17
2022-12-05T04:53:18.868Z,27.60
2022-12-05T04:55:49.225Z,26.47
2022-12-05T04:58:23.827Z,27.97
2022-12-05T05:00:54.758Z,27.80
2022-12-05T05:03:28.783Z,26.83
2022-12-05T05:05:56.814Z,25.60
2022-12-05T05:08:27.514Z,25.92
2022-12-05T05:11:29.728Z,26.23
2022-12-05T05:13:56.590Z,23.60
2022-12-05T05:16:26.509Z,26.10
2022-12-05T05:18:53.736Z,26.02
2022-12-05T05:21:22.002Z,22.37
2022-12-05T05:23:49.222Z,21.20
2022-12-05T05:26:16.442Z,24.07
2022-12-05T05:28:44.113Z,22.90
2022-12-05T05:31:11.249Z,22.67
2022-12-05T05:33:38.368Z,19.50
2022-12-05T05:36:10.480Z,19.33
2022-12-05T05:38:39.096Z,19.60
2022-12-05T05:41:06.842Z,19.47
2022-12-05T05:43:33.485Z,19.70
2022-12-05T05:46:05.250Z,18.50
2022-12-05T05:48:32.109Z,16.10
2022-12-05T05:51:03.107Z,17.30
2022-12-05T05:53:29.834Z,16.85
2022-12-05T05:55:56.806Z,14.27
2022-12-05T05:58:23.697Z,13.80
2022-12-05T06:00:50.284Z,14.52
2022-12-05T06:03:17.099Z,14.00
2022-12-05T06:05:56.105Z,13.63
2022-12-05T06:08:22.871Z,14.87
2022-12-05T06:10:49.755Z,12.67
2022-12-05T06:13:16.796Z,12.43
2022-12-05T06:15:43.514Z,11.60
2022-12-05T06:18:10.259Z,12.68
2022-12-05T06:20:36.860Z,11.97
2022-12-05T06:23:03.506Z,12.10
2022-12-05T06:25:30.463Z,11.50
2022-12-05T06:27:57.230Z,11.43
2022-12-05T06:30:23.863Z,10.43
2022-12-05T06:32:50.449Z,10.10
2022-12-05T06:35:17.030Z,10.77
2022-12-05T06:37:44.666Z,11.13
2022-12-05T06:40:15.640Z,10.83
2022-12-05T06:42:42.279Z,11.80
2022-12-05T06:45:10.174Z,12.38
2022-12-05T06:47:36.986Z,10.27
2022-12-05T06:50:03.835Z,11.03
2022-12-05T06:52:30.429Z,9.60
2022-12-05T06:54:57.099Z,10.40
2022-12-05T06:57:23.649Z,10.33
2022-12-05T06:59:50.298Z,12.63
2022-12-05T07:02:17.193Z,12.23
2022-12-05T07:04:44.385Z,11.70
2022-12-05T07:07:13.071Z,10.63
2022-12-05T07:09:51.621Z,12.02
2022-12-05T07:12:19.394Z,13.43
2022-12-05T07:14:48.602Z,12.82
2022-12-05T07:17:16.854Z,11.53
2022-12-05T07:19:43.517Z,12.48
2022-12-05T07:22:15.498Z,10.43
2022-12-05T07:24:42.617Z,12.45
2022-12-05T07:27:09.256Z,13.52
2022-12-05T07:29:35.883Z,12.03
2022-12-05T07:32:02.966Z,12.68
2022-12-05T07:34:29.827Z,12.33
2022-12-05T07:36:56.476Z,13.32
2022-12-05T07:39:23.061Z,14.73
2022-12-05T07:41:49.702Z,14.20
2022-12-05T07:44:16.381Z,12.43
2022-12-05T07:46:43.064Z,15.50
2022-12-05T07:49:09.823Z,15.98
2022-12-05T07:51:36.836Z,19.23
2022-12-05T07:54:03.675Z,16.03
2022-12-05T07:56:30.421Z,15.47
2022-12-05T07:58:57.221Z,16.25
2022-12-05T08:01:25.853Z,15.97
2022-12-05T08:03:54.334Z,16.40
2022-12-05T08:06:29.101Z,17.63
2022-12-05T08:08:56.539Z,20.00
2022-12-05T08:11:28.835Z,21.47
2022-12-05T08:14:06.335Z,19.10
2022-12-05T08:16:35.253Z,24.33
2022-12-05T08:19:12.851Z,22.23
2022-12-05T08:21:40.191Z,25.87
2022-12-05T08:24:08.183Z,22.52
2022-12-05T08:26:36.282Z,21.83
2022-12-05T08:29:09.175Z,23.67
2022-12-05T08:31:40.000Z,22.52
2022-12-05T08:34:06.749Z,25.38
2022-12-05T08:36:33.481Z,27.48
2022-12-05T08:39:02.439Z,22.98
2022-12-05T08:41:30.165Z,24.88
2022-12-05T08:43:59.712Z,21.40
2022-12-05T08:46:26.381Z,20.75
2022-12-05T08:48:53.029Z,21.77
2022-12-05T08:51:19.648Z,20.92
2022-12-05T08:53:46.435Z,20.45
2022-12-05T08:56:13.171Z,22.23
2022-12-05T08:58:40.792Z,22.90
2022-12-05T09:01:13.486Z,20.93
2022-12-05T09:03:46.040Z,22.20
2022-12-05T09:06:21.864Z,20.23
2022-12-05T09:08:52.683Z,24.83
2022-12-05T09:11:23.951Z,22.95
2022-12-05T09:13:51.812Z,29.50
2022-12-05T09:16:35.114Z,27.73
2022-12-05T09:19:04.027Z,31.27
2022-12-05T09:21:32.030Z,31.27
2022-12-05T09:24:00.163Z,30.33
2022-12-05T09:26:28.062Z,34.72
2022-12-05T09:28:54.895Z,33.78
2022-12-05T09:31:24.362Z,35.95
2022-12-05T09:33:51.968Z,36.10
2022-12-05T09:36:24.214Z,32.10
2022-12-05T09:38:51.191Z,35.22
2022-12-05T09:41:54.659Z,36.80
2022-12-05T09:44:39.295Z,42.20
2022-12-05T09:47:28.358Z,38.90
2022-12-05T09:50:00.028Z,41.90
2022-12-05T09:52:33.377Z,42.65
2022-12-05T09:55:10.962Z,49.13
2022-12-05T09:57:44.110Z,47.57
2022-12-05T10:00:12.137Z,45.90
2022-12-05T10:02:52.131Z,49.28
2022-12-05T10:05:39.548Z,50.03
2022-12-05T10:08:12.086Z,50.07
2022-12-05T10:11:01.704Z,43.57
2022-12-05T10:13:58.657Z,54.90
2022-12-05T10:16:56.217Z,45.77
2022-12-05T10:19:33.592Z,44.93
2022-12-05T10:22:20.953Z,54.20
2022-12-05T10:24:52.386Z,48.83
2022-12-05T10:27:40.838Z,49.93
2022-12-05T10:30:23.147Z,46.03
2022-12-05T10:33:20.959Z,49.60
2022-12-05T10:35:53.681Z,53.70
2022-12-05T10:38:31.253Z,46.70
2022-12-05T10:41:06.455Z,47.57
2022-12-05T10:43:35.046Z,47.67
2022-12-05T10:46:02.547Z,47.07
2022-12-05T10:48:31.410Z,50.63
2022-12-05T10:50:58.620Z,51.73
2022-12-05T10:53:33.056Z,51.83
2022-12-05T10:56:29.427Z,46.90
2022-12-05T10:58:57.753Z,43.37
2022-12-05T11:01:26.913Z,47.00
2022-12-05T11:03:59.602Z,49.67
2022-12-05T11:06:31.440Z,43.77
2022-12-05T11:09:04.776Z,44.53
2022-12-05T11:11:33.667Z,40.30
2022-12-05T11:14:03.881Z,42.37
2022-12-05T11:16:37.175Z,42.27
2022-12-05T11:19:22.362Z,41.60
2022-12-05T11:21:50.188Z,41.97
2022-12-05T11:24:39.215Z,43.23
2022-12-05T11:27:25.812Z,44.37
2022-12-05T11:29:59.467Z,42.83
2022-12-05T11:32:32.564Z,36.97
2022-12-05T11:35:18.104Z,41.67
2022-12-05T11:38:03.865Z,43.10
2022-12-05T11:40:54.534Z,38.10
2022-12-05T11:43:21.176Z,39.60
2022-12-05T11:46:26.843Z,40.67
2022-12-05T11:49:13.231Z,37.57
2022-12-05T11:51:46.327Z,42.07
2022-12-05T11:54:35.665Z,38.80
2022-12-05T11:57:14.389Z,42.20
2022-12-05T12:00:09.190Z,48.17
2022-12-05T12:02:56.212Z,42.47
2022-12-05T12:05:37.454Z,41.03
2022-12-05T12:08:16.538Z,46.00
2022-12-05T12:11:12.291Z,41.93
2022-12-05T12:13:44.867Z,41.67
2022-12-05T12:16:39.543Z,43.23
2022-12-05T12:19:19.447Z,37.60
2022-12-05T12:22:01.268Z,42.20
2022-12-05T12:24:42.956Z,38.63
2022-12-05T12:27:32.087Z,41.60
2022-12-05T12:30:17.943Z,39.80
2022-12-05T12:32:56.617Z,29.27
2022-12-05T12:36:00.774Z,25.83
2022-12-05T12:39:03.266Z,21.47
2022-12-05T12:41:38.735Z,19.73
2022-12-05T12:44:43.617Z,17.80
2022-12-05T12:47:31.984Z,16.63
2022-12-05T12:50:10.954Z,16.80
2022-12-05T12:53:14.253Z,15.87
2022-12-05T12:55:57.325Z,17.53
2022-12-05T12:58:35.925Z,18.87
2022-12-05T13:01:15.842Z,19.63
2022-12-05T13:03:52.294Z,22.27
2022-12-05T13:06:32.161Z,22.57
2022-12-05T13:09:04.869Z,19.37
2022-12-05T13:11:37.355Z,22.30
2022-12-05T13:14:09.576Z,26.57
2022-12-05T13:16:45.629Z,26.37
2022-12-05T13:19:38.964Z,21.70
2022-12-05T13:22:07.632Z,26.07
2022-12-05T13:24:35.719Z,26.57
2022-12-05T13:27:06.785Z,25.97
2022-12-05T13:29:38.161Z,21.97
2022-12-05T13:32:07.022Z,27.17
2022-12-05T13:34:47.512Z,26.47
2022-12-05T13:37:45.858Z,26.33
2022-12-05T13:40:49.572Z,28.43
2022-12-05T13:43:22.865Z,24.30
2022-12-05T13:45:58.643Z,25.90
2022-12-05T13:48:26.811Z,22.27
2022-12-05T13:51:03.893Z,27.40
2022-12-05T13:53:43.111Z,20.73
2022-12-05T13:56:12.817Z,24.37
2022-12-05T13:58:48.526Z,19.77
2022-12-05T14:01:27.751Z,20.60
2022-12-05T14:03:58.770Z,21.83
2022-12-05T14:06:38.068Z,22.07
2022-12-05T14:09:19.128Z,33.43
2022-12-05T14:12:10.838Z,28.80
2022-12-05T14:14:57.930Z,26.50
2022-12-05T14:17:30.837Z,21.40
2022-12-05T14:20:15.759Z,19.90
2022-12-05T14:23:05.893Z,19.37
2022-12-05T14:25:47.857Z,19.33
2022-12-05T14:28:50.314Z,23.70
2022-12-05T14:31:16.937Z,23.00
2022-12-05T14:33:43.686Z,22.90
2022-12-05T14:36:17.041Z,18.53
2022-12-05T14:38:44.706Z,19.33
2022-12-05T14:41:34.579Z,17.07
2022-12-05T14:44:08.465Z,18.13
2022-12-05T14:46:35.593Z,19.87
2022-12-05T14:49:37.724Z,17.97
2022-12-05T14:52:12.360Z,16.40
2022-12-05T14:54:40.208Z,18.73
2022-12-05T14:57:16.173Z,17.27
2022-12-05T14:59:51.425Z,15.57
2022-12-05T15:02:27.268Z,19.10
2022-12-05T15:05:22.272Z,19.47
2022-12-05T15:07:49.882Z,19.80
2022-12-05T15:10:38.325Z,19.23
2022-12-05T15:13:11.863Z,22.77
2022-12-05T15:15:45.754Z,19.53
2022-12-05T15:18:21.275Z,18.57
2022-12-05T15:21:13.155Z,18.20
2022-12-05T15:23:45.771Z,19.40
2022-12-05T15:26:45.485Z,20.10
2022-12-05T15:29:32.812Z,20.17
2022-12-05T15:32:07.688Z,19.57
2022-12-05T15:35:04.906Z,19.90
2022-12-05T15:37:52.636Z,19.90
2022-12-05T15:40:22.127Z,21.40
2022-12-05T15:42:57.479Z,20.57
2022-12-05T15:45:27.015Z,19.70
2022-12-05T15:48:07.298Z,20.43
2022-12-05T15:50:44.192Z,18.80
2022-12-05T15:53:31.238Z,21.33
2022-12-05T15:56:04.342Z,22.87
2022-12-05T15:58:49.867Z,20.53
2022-12-05T16:01:23.138Z,22.37
2022-12-05T16:04:01.716Z,21.43
2022-12-05T16:06:45.865Z,23.90
2022-12-05T16:09:26.499Z,20.57
2022-12-05T16:12:02.403Z,19.93
2022-12-05T16:17:25.714Z,22.43
2022-12-05T16:19:52.422Z,20.83
2022-12-05T16:22:25.643Z,20.03
2022-12-05T16:25:03.414Z,23.80
2022-12-05T16:31:01.748Z,24.40
2022-12-05T16:33:30.307Z,20.57
2022-12-05T16:36:06.844Z,20.77
2022-12-05T16:38:33.590Z,20.40
2022-12-05T16:41:05.925Z,21.13
2022-12-05T16:43:32.791Z,20.97
2022-12-05T16:46:12.886Z,23.10
2022-12-05T16:49:17.924Z,21.63
2022-12-05T16:51:52.758Z,19.80
2022-12-05T16:54:19.540Z,21.47
2022-12-05T16:56:46.117Z,22.23
2022-12-05T16:59:36.816Z,28.73
2022-12-05T17:02:07.384Z,21.77
2022-12-05T17:04:34.137Z,21.23
2022-12-05T17:07:00.826Z,22.27
2022-12-05T17:09:27.438Z,23.93
2022-12-05T17:12:03.032Z,25.23
2022-12-05T17:14:29.714Z,30.07
2022-12-05T17:16:56.267Z,27.40
2022-12-05T17:19:23.259Z,29.80
2022-12-05T17:21:50.007Z,23.47
2022-12-05T17:24:18.674Z,21.10
2022-12-05T17:26:46.275Z,22.50
2022-12-05T17:29:13.257Z,35.83
2022-12-05T17:31:39.928Z,35.77
2022-12-05T17:34:15.680Z,33.53
2022-12-05T17:36:43.115Z,40.73
2022-12-05T17:39:09.864Z,31.03
2022-12-05T17:41:37.033Z,29.83
2022-12-05T17:44:04.742Z,28.43
2022-12-05T17:46:31.523Z,28.33
2022-12-05T17:48:58.403Z,23.97
2022-12-05T17:51:25.273Z,25.33
2022-12-05T17:53:52.936Z,24.10
2022-12-05T17:56:20.131Z,24.87
2022-12-05T17:58:46.913Z,21.70
2022-12-05T18:01:19.533Z,24.23
2022-12-05T18:03:47.341Z,26.07
2022-12-05T18:06:15.571Z,24.90
2022-12-05T18:08:44.948Z,23.07
2022-12-05T18:11:12.892Z,21.17
2022-12-05T18:13:39.608Z,21.77
2022-12-05T18:16:06.596Z,24.33
2022-12-05T18:18:33.365Z,19.23
2022-12-05T18:21:11.430Z,21.83
2022-12-05T18:23:39.344Z,26.23
2022-12-05T18:26:08.046Z,24.30
2022-12-05T18:28:37.183Z,26.73
2022-12-05T18:31:08.261Z,26.23
2022-12-05T18:33:34.889Z,25.87
2022-12-05T18:36:06.273Z,27.27
2022-12-05T18:38:32.909Z,23.37
2022-12-05T18:41:01.072Z,25.63
2022-12-05T18:43:27.746Z,23.33
2022-12-05T18:45:56.462Z,24.23
2022-12-05T18:48:38.760Z,24.10
2022-12-05T18:51:14.746Z,25.07
2022-12-05T18:53:42.130Z,27.23
2022-12-05T18:56:26.857Z,31.13
2022-12-05T18:58:55.851Z,32.53
2022-12-05T19:01:22.958Z,26.90
2022-12-05T19:03:50.288Z,26.20
2022-12-05T19:06:19.710Z,23.43
2022-12-05T19:08:46.659Z,24.73
2022-12-05T19:11:15.515Z,30.23
2022-12-05T19:13:42.647Z,33.53
2022-12-05T19:16:14.506Z,34.70
2022-12-05T19:18:41.668Z,33.10
2022-12-05T19:21:08.407Z,42.13
2022-12-05T19:23:35.397Z,47.13
2022-12-05T19:26:08.195Z,36.70
2022-12-05T19:28:36.704Z,40.37
2022-12-05T19:31:11.482Z,37.67
2022-12-05T19:33:51.867Z,36.33
2022-12-05T19:36:19.741Z,119.33
2022-12-05T19:38:48.551Z,101.10
2022-12-05T19:41:18.094Z,45.20
2022-12-05T19:43:45.041Z,51.83
2022-12-05T19:46:20.912Z,32.57
2022-12-05T19:48:48.285Z,23.43
2022-12-05T19:51:14.905Z,25.57
2022-12-05T19:53:43.701Z,27.73
2022-12-05T19:56:31.541Z,27.93
2022-12-05T19:58:58.988Z,24.63
2022-12-05T20:01:31.644Z,26.37
2022-12-05T20:04:04.261Z,24.97
2022-12-05T20:06:33.744Z,26.63
2022-12-05T20:09:01.391Z,26.53
2022-12-05T20:11:31.515Z,22.10
2022-12-05T20:14:00.270Z,23.47
2022-12-05T20:16:27.921Z,23.77
2022-12-05T20:18:57.963Z,27.10
2022-12-05T20:21:26.152Z,26.47
2022-12-05T20:23:54.427Z,25.60
2022-12-05T20:26:24.527Z,26.43
2022-12-05T20:28:51.942Z,26.93
2022-12-05T20:31:24.104Z,24.97
2022-12-05T20:33:52.734Z,26.03
2022-12-05T20:36:24.283Z,29.17
2022-12-05T20:38:59.935Z,27.50
2022-12-05T20:41:27.744Z,23.37
2022-12-05T20:43:57.252Z,26.30
2022-12-05T20:46:26.369Z,29.20
2022-12-05T20:48:53.487Z,27.53
2022-12-05T20:51:22.610Z,24.47
2022-12-05T20:53:49.770Z,28.47
2022-12-05T20:56:18.914Z,27.63
2022-12-05T20:58:48.086Z,26.33
2022-12-05T21:01:16.830Z,27.07
2022-12-05T21:03:46.123Z,24.70
2022-12-05T21:06:15.554Z,24.87
2022-12-05T21:08:43.272Z,23.37
2022-12-05T21:11:11.967Z,28.50
2022-12-05T21:13:39.334Z,27.10
2022-12-05T21:16:09.323Z,25.27
2022-12-05T21:18:36.317Z,24.80
2022-12-05T21:21:06.304Z,26.60
2022-12-05T21:23:33.776Z,23.40
2022-12-05T21:26:06.045Z,27.17
2022-12-05T21:28:33.508Z,29.87
2022-12-05T21:31:11.741Z,31.33
2022-12-05T21:33:39.646Z,26.87
2022-12-05T21:36:07.323Z,28.03
2022-12-05T21:38:34.051Z,27.60
2022-12-05T21:41:01.941Z,25.90
2022-12-05T21:43:29.810Z,29.63
2022-12-05T21:45:56.875Z,30.97
2022-12-05T21:48:24.628Z,31.10
2022-12-05T21:50:51.773Z,36.07
2022-12-05T21:53:19.322Z,29.63
2022-12-05T21:55:46.054Z,28.17
2022-12-05T21:58:13.211Z,31.00
2022-12-05T22:00:40.004Z,30.47
2022-12-05T22:03:07.383Z,24.93
2022-12-05T22:05:34.173Z,27.70
2022-12-05T22:08:04.999Z,26.33
2022-12-05T22:10:36.838Z,28.40
2022-12-05T22:13:06.967Z,26.97
2022-12-05T22:15:33.688Z,28.43
2022-12-05T22:18:00.320Z,27.30
2022-12-05T22:20:27.339Z,28.60
2022-12-05T22:22:53.948Z,26.80
2022-12-05T22:25:32.278Z,24.03
2022-12-05T22:27:59.007Z,37.13
2022-12-05T22:30:25.597Z,26.17
2022-12-05T22:32:53.805Z,30.73
2022-12-05T22:35:20.460Z,27.73
2022-12-05T22:37:47.140Z,24.90
2022-12-05T22:40:13.892Z,26.10
2022-12-05T22:42:40.582Z,27.30
2022-12-05T22:45:07.831Z,29.07
2022-12-05T22:47:34.480Z,26.03
2022-12-05T22:50:01.509Z,30.13
2022-12-05T22:52:28.749Z,28.00
2022-12-05T22:54:55.336Z,24.80
2022-12-05T22:57:21.981Z,26.47
2022-12-05T22:59:48.718Z,26.53
2022-12-05T23:02:15.363Z,26.53
2022-12-05T23:04:42.051Z,25.00
2022-12-05T23:07:08.765Z,28.00
2022-12-05T23:09:35.672Z,24.33
2022-12-05T23:12:02.314Z,26.47
2022-12-05T23:14:28.933Z,23.60
2022-12-05T23:16:55.611Z,23.07
2022-12-05T23:19:22.401Z,25.50
2022-12-05T23:21:49.174Z,20.20
2022-12-05T23:24:15.856Z,20.87
2022-12-05T23:26:44.990Z,24.03
2022-12-05T23:29:13.287Z,21.47
2022-12-05T23:31:41.157Z,20.33
2022-12-05T23:34:08.858Z,24.37
2022-12-05T23:36:35.913Z,18.87
2022-12-05T23:39:02.652Z,25.33
2022-12-05T23:41:29.599Z,20.20
2022-12-05T23:43:56.854Z,19.07
2022-12-05T23:46:25.794Z,20.37
2022-12-05T23:48:53.084Z,20.23
2022-12-05T23:51:22.409Z,18.40
2022-12-05T23:53:53.578Z,18.30
2022-12-05T23:56:24.602Z,16.40
2022-12-05T23:58:51.429Z,16.27
